Aransas — WDC2630 — position and weather

sailwx.info

Track history (hours):
 
Tides and Currents Weather Stations Pressure Air Temp Water Temp Dewpoint Dewpoint Depression Visibility Wind Speed Wind Dir Waves Ship Positions

Aransas

Owner: Kirby Inland Marine LP, Houston, TX. More information available from US FCC via Universal Licensing System and Coast Guard Vessel Documentation Center.

Last reported at 2018-Jun-22 08:26 UTC. Time now 2018-Jun-22 17:11 UTC.
Position N 29°44' W 095°03'.

Length 79 m; draft 2.7 m.

Type: . MMSI: 366995780.

Date/timePositionNaut miles runAvg speedWind from/ knotsBaromVisibWave heightAir tempDewpointWater temp
2018-Jun-22 08:26N 29°44' W 095°03'3 6.3
2018-Jun-22 08:00N 29°42' W 095°01'0 0.0
2018-Jun-21 06:00N 29°42' W 095°01'3 5.4
2018-Jun-21 05:30N 29°41' W 094°58'2 4.7
2018-Jun-21 05:00N 29°41' W 094°56'1 2.9
2018-Jun-21 04:30N 29°42' W 094°55'1 1.9
2018-Jun-21 03:57N 29°43' W 094°56'2 2.6
2018-Jun-21 03:13N 29°44' W 094°56'2 0.4
2018-Jun-20 21:16N 29°42' W 094°56'2 3.2
2018-Jun-20 20:44N 29°40' W 094°56'1 4.6
2018-Jun-20 20:30N 29°41' W 094°57'2 4.6
2018-Jun-20 20:00N 29°42' W 094°59'0 0.0
2018-Jun-19 04:35N 29°42' W 094°59'1 7.0
2018-Jun-19 04:30N 29°41' W 094°59'4 7.2
2018-Jun-19 04:00N 29°38' W 094°58'3 5.4
2018-Jun-19 03:30N 29°37' W 095°01'1 1.5
2018-Jun-19 02:57N 29°37' W 095°01'0 0.0
2018-Jun-19 01:50N 29°37' W 095°01'0 0.0
2018-Jun-19 01:28N 29°37' W 095°01'0 0.0
2018-Jun-19 01:00N 29°37' W 095°01'0 0.0
2018-Jun-19 00:29N 29°37' W 095°01'0 0.0
2018-Jun-18 23:50N 29°37' W 095°01'0 0.0
2018-Jun-18 23:30N 29°37' W 095°01'0 0.0
2018-Jun-18 23:00N 29°37' W 095°01'0 0.0
2018-Jun-18 21:26N 29°37' W 095°01'1115.3
2018-Jun-18 20:42N 29°47' W 095°05'1110.0
2018-Jun-18 19:36N 29°37' W 095°01'0 0.0
2018-Jun-18 19:25N 29°37' W 095°01'0 0.0
2018-Jun-18 18:52N 29°37' W 095°01'0 0.0
2018-Jun-18 18:25N 29°37' W 095°01'0 0.0
2018-Jun-18 17:58N 29°37' W 095°01'0 0.0
2018-Jun-18 17:29N 29°37' W 095°01'0 0.0
2018-Jun-18 16:50N 29°37' W 095°01'0 0.0
2018-Jun-18 16:18N 29°37' W 095°01'0 0.1
2018-Jun-18 15:59N 29°37' W 095°01'0 0.0
2018-Jun-18 15:15N 29°37' W 095°01'0 0.0
2018-Jun-18 14:59N 29°37' W 095°01'2 3.5
2018-Jun-18 14:29N 29°37' W 094°60'3 5.2
2018-Jun-18 14:00N 29°39' W 094°58'4 7.0
2018-Jun-18 13:28N 29°42' W 095°01'  
Track history (hours):
 
Tides and Currents Weather Stations Pressure Air Temp Water Temp Dewpoint Dewpoint Depression Visibility Wind Speed Wind Dir Waves Ship Positions

Aransas

Owner: Kirby Inland Marine LP, Houston, TX. More information available from US FCC via Universal Licensing System and Coast Guard Vessel Documentation Center.

Last reported at 2018-Jun-22 08:26 UTC. Time now 2018-Jun-22 17:11 UTC.
Position N 29°44' W 095°03'.

Length 79 m; draft 2.7 m.

Type: . MMSI: 366995780.

Date/timePositionNaut miles runAvg speedWind from/ knotsBaromVisibWave heightAir tempDewpointWater temp
2018-Jun-22 08:26N 29°44' W 095°03'3 6.3
2018-Jun-22 08:00N 29°42' W 095°01'0 0.0
2018-Jun-21 06:00N 29°42' W 095°01'3 5.4
2018-Jun-21 05:30N 29°41' W 094°58'2 4.7
2018-Jun-21 05:00N 29°41' W 094°56'1 2.9
2018-Jun-21 04:30N 29°42' W 094°55'1 1.9
2018-Jun-21 03:57N 29°43' W 094°56'2 2.6
2018-Jun-21 03:13N 29°44' W 094°56'2 0.4
2018-Jun-20 21:16N 29°42' W 094°56'2 3.2
2018-Jun-20 20:44N 29°40' W 094°56'1 4.6
2018-Jun-20 20:30N 29°41' W 094°57'2 4.6
2018-Jun-20 20:00N 29°42' W 094°59'0 0.0
2018-Jun-19 04:35N 29°42' W 094°59'1 7.0
2018-Jun-19 04:30N 29°41' W 094°59'4 7.2
2018-Jun-19 04:00N 29°38' W 094°58'3 5.4
2018-Jun-19 03:30N 29°37' W 095°01'1 1.5
2018-Jun-19 02:57N 29°37' W 095°01'0 0.0
2018-Jun-19 01:50N 29°37' W 095°01'0 0.0
2018-Jun-19 01:28N 29°37' W 095°01'0 0.0
2018-Jun-19 01:00N 29°37' W 095°01'0 0.0
2018-Jun-19 00:29N 29°37' W 095°01'0 0.0
2018-Jun-18 23:50N 29°37' W 095°01'0 0.0
2018-Jun-18 23:30N 29°37' W 095°01'0 0.0
2018-Jun-18 23:00N 29°37' W 095°01'0 0.0
2018-Jun-18 21:26N 29°37' W 095°01'1115.3
2018-Jun-18 20:42N 29°47' W 095°05'1110.0
2018-Jun-18 19:36N 29°37' W 095°01'0 0.0
2018-Jun-18 19:25N 29°37' W 095°01'0 0.0
2018-Jun-18 18:52N 29°37' W 095°01'0 0.0
2018-Jun-18 18:25N 29°37' W 095°01'0 0.0
2018-Jun-18 17:58N 29°37' W 095°01'0 0.0
2018-Jun-18 17:29N 29°37' W 095°01'0 0.0
2018-Jun-18 16:50N 29°37' W 095°01'0 0.0
2018-Jun-18 16:18N 29°37' W 095°01'0 0.1
2018-Jun-18 15:59N 29°37' W 095°01'0 0.0
2018-Jun-18 15:15N 29°37' W 095°01'0 0.0
2018-Jun-18 14:59N 29°37' W 095°01'2 3.5
2018-Jun-18 14:29N 29°37' W 094°60'3 5.2
2018-Jun-18 14:00N 29°39' W 094°58'4 7.0
2018-Jun-18 13:28N 29°42' W 095°01'  

Dump ship's entire track history